• Join FlightAware (Why Join?)
  • Login
  • US Flag 
09:56PM EST


 

Airport Tracker/Info


-or-


 

Live Flight TrackerFlight Track Log ✈ N682RW ✈ 17-Oct-2013 ✈ KDEN - KPHX

Flight Track Log - Related Links

Times and Time Zones

All times are in EDT time to prevent confusion due to time zone crossing. See the N682RW flight status page for this flight to view local times or setup timezone preferences in your user account.

Time Position Orientation Groundspeed Altitude Reporting Facility
EDT Latitude Longitude Course Direction KTS MPH feet Rate Location/Type
01:27AM 39.7500 -104.6333 206° Southwest 239 275 9,100  Level Denver TRACON
01:28AM 39.6681 -104.6719 200° South 286 329 11,500 2,100 Climbing Denver Center
01:29AM 39.5883 -104.7369 212° Southwest 339 390 13,700 2,580 Climbing Denver Center
01:30AM 39.5086 -104.8172 218° Southwest 358 412 16,700 2,700 Climbing Denver Center
01:31AM 39.4261 -104.8997 218° Southwest 378 435 19,200 2,520 Climbing Denver Center
01:32AM 39.3872 -105.2794 206° Southwest  Level Estimated
01:32AM 39.3239 -104.9547 203° Southwest 397 457 21,800  Level Denver Center
01:33AM 39.2256 -105.0153 206° Southwest 395 455 24,200 2,100 Climbing Denver Center
01:34AM 39.1347 -105.0667 204° Southwest 391 450 26,000 1,860 Climbing Denver Center
01:35AM 39.0383 -105.1347 209° Southwest 395 455 28,000 1,560 Climbing Denver Center
01:36AM 38.9567 -105.2300 222° Southwest 396 456 29,200 1,200 Climbing Denver Center
01:37AM 38.8717 -105.3261 221° Southwest 404 465 30,400 1,260 Climbing Denver Center
01:38AM 38.7844 -105.4233 221° Southwest 413 475 31,800 780 Climbing Denver Center
01:39AM 38.6964 -105.5186 220° Southwest 414 476 32,000 420 Climbing Denver Center
01:40AM 38.6092 -105.6150 221° Southwest 415 478 32,700 780 Climbing Denver Center
01:41AM 38.5211 -105.7122 221° Southwest 417 480 33,600 600 Climbing Denver Center
01:42AM 38.4311 -105.8108 221° Southwest 424 488 34,000 180 Climbing Denver Center
01:43AM 38.3322 -105.9169 220° Southwest 425 489 34,000  Level Denver Center
01:44AM 38.2478 -106.0108 221° Southwest 423 487 34,000  Level Denver Center
01:45AM 38.1467 -106.1200 220° Southwest 426 490 34,000  Level Denver Center
01:46AM 38.0603 -106.2128 220° Southwest 427 491 34,000  Level Denver Center
01:47AM 37.9750 -106.3053 221° Southwest 424 488 34,000  Level Denver Center
01:48AM 37.8733 -106.4150 220° Southwest 427 491 34,000  Level Denver Center
01:49AM 37.7819 -106.5086 219° Southwest 432 497 34,000  Level Denver Center
01:50AM 37.6981 -106.6014 221° Southwest 422 486 34,000  Level Denver Center
01:51AM 37.6092 -106.6953 220° Southwest 433 498 34,000  Level Denver Center
01:52AM 37.5042 -106.8042 219° Southwest 437 503 34,000  Level Denver Center
01:53AM 37.4164 -106.8992 221° Southwest 435 501 34,000  Level Denver Center
01:54AM 37.3275 -106.9933 220° Southwest 436 502 34,000  Level Denver Center
01:55AM 37.2228 -107.1025 220° Southwest 438 504 34,000  Level Denver Center
01:56AM 37.1325 -107.1958 220° Southwest 439 505 34,000  Level Denver Center
01:57AM 37.0431 -107.2906 220° Southwest 440 506 34,000  Level Denver Center
01:58AM 36.9528 -107.3822 219° Southwest 437 503 34,000  Level Denver Center
01:59AM 36.8472 -107.4894 219° Southwest 437 503 34,000  Level Denver Center
02:00AM 36.7558 -107.5850 220° Southwest 446 513 34,000  Level Denver Center
02:01AM 36.6661 -107.6772 220° Southwest 439 505 34,000  Level Denver Center
02:02AM 36.5603 -107.7861 220° Southwest 441 507 34,000  Level Denver Center
02:03AM 36.4678 -107.8800 219° Southwest 446 513 34,000  Level Denver Center
02:04AM 36.3756 -107.9728 219° Southwest 445 512 34,000  Level Denver Center
02:05AM 36.2714 -108.0839 221° Southwest 442 509 34,000  Level Denver Center
02:06AM 36.1994 -108.1978 232° Southwest 438 504 34,000  Level Denver Center
02:07AM 36.1236 -108.3086 230° Southwest 439 505 34,000  Level Denver Center
02:08AM 36.0458 -108.4219 230° Southwest 445 512 34,000  Level Denver Center
02:09AM 35.9556 -108.5508 229° Southwest 443 510 34,000  Level Denver Center
02:10AM 35.8794 -108.6608 230° Southwest 438 504 34,000  Level Denver Center
02:11AM 35.8025 -108.7728 230° Southwest 440 506 34,000  Level Denver Center
02:12AM 35.7125 -108.9011 229° Southwest 441 507 34,000  Level Albuquerque Center
02:13AM 35.6214 -109.0300 229° Southwest 444 511 34,000  Level Albuquerque Center
02:14AM 35.5433 -109.1383 228° Southwest 442 509 34,000  Level Albuquerque Center
02:15AM 35.4672 -109.2500 230° Southwest 442 509 34,000  Level Albuquerque Center
02:16AM 35.3769 -109.3778 229° Southwest 443 510 34,000  Level Albuquerque Center
02:17AM 35.2978 -109.4844 228° Southwest 443 510 34,000  Level Albuquerque Center
02:18AM 35.2208 -109.5911 229° Southwest 439 505 34,000  Level Albuquerque Center
02:19AM 35.1444 -109.7017 230° Southwest 441 507 34,000  Level Albuquerque Center
02:20AM 35.0528 -109.8264 228° Southwest 442 509 34,000  Level Albuquerque Center
02:21AM 34.9747 -109.9342 229° Southwest 443 510 34,000  Level Albuquerque Center
02:22AM 34.8967 -110.0419 229° Southwest 443 510 34,000  Level Albuquerque Center
02:23AM 34.8081 -110.1722 230° Southwest 445 512 34,000 -60 Level Albuquerque Center
02:24AM 34.7331 -110.2825 230° Southwest 441 507 33,900 -960 Descending Albuquerque Center
02:25AM 34.6544 -110.3847 227° Southwest 434 499 32,100 -1,860 Descending Albuquerque Center
02:26AM 34.5806 -110.4878 229° Southwest 426 490 30,200 -2,400 Descending Albuquerque Center
02:27AM 34.5008 -110.5933 228° Southwest 426 490 27,300 -2,700 Descending Albuquerque Center
02:28AM 34.4231 -110.6978 228° Southwest 420 483 24,800 -1,920 Descending Albuquerque Center
02:29AM 34.3447 -110.7961 226° Southwest 413 475 23,500 -1,500 Descending Albuquerque Center
02:30AM 34.2783 -110.8869 229° Southwest 373 429 21,900 -1,800 Descending Albuquerque Center
02:31AM 34.2133 -110.9747 228° Southwest 355 409 19,900 -1,740 Descending Albuquerque Center
02:32AM 34.1492 -111.0600 228° Southwest 348 400 18,400 -1,440 Descending Albuquerque Center
02:33AM 34.0847 -111.1447 227° Southwest 343 395 17,100 -1,320 Descending Albuquerque Center
02:34AM 34.0222 -111.2256 227° Southwest 334 384 15,800 -1,440 Descending Albuquerque Center
02:35AM 33.9639 -111.2992 226° Southwest 311 358 14,200 -1,680 Descending Albuquerque Center
02:36AM 33.9069 -111.3728 227° Southwest 300 345 12,500 -1,620 Descending Albuquerque Center
02:37AM 33.8442 -111.4394 221° Southwest 298 343 11,000 -1,320 Descending Albuquerque Center
02:38AM 33.7781 -111.4936 214° Southwest 287 330 9,900 -1,020 Descending Albuquerque Center
02:39AM 33.7206 -111.5436 216° Southwest 256 295 9,000 -780 Descending Albuquerque Center
02:40AM 33.6667 -111.5892 215° Southwest 239 275 8,400 -720 Descending Albuquerque Center
02:41AM 33.6125 -111.6356 216° Southwest 238 274 7,600 -960 Descending Albuquerque Center
02:42AM 33.5622 -111.6872 221° Southwest 237 273 6,500 -1,320 Descending Albuquerque Center
02:43AM 33.5136 -111.7378 221° Southwest 232 267 5,000 -1,080 Descending Albuquerque Center
02:44AM 33.4692 -111.7828 220° Southwest 213 245 4,400 -840 Descending Albuquerque Center
02:45AM 33.4367 -111.8303 231° Southwest 188 216 3,400 -960 Descending Albuquerque Center
02:46AM 33.4333 -111.8833 266° West 163 188 2,600 -780 Descending Phoenix TRACON
02:47AM 33.4333 -111.9333 270° West 132 152 2,000 -600 Descending Phoenix TRACON
02:49AM 33.4333 -112.0000 287° West  Level FlightAware Approximate
02:56AM 33.4343 -112.0116 287° West  Level Estimated
02:57AM 33.4343 -112.0116 287° West  Level Estimated